sensor_id;sensor_type;location;lat;lon;timestamp;P1;durP1;ratioP1;P2;durP2;ratioP2
56511;SDS011;42408;53.238;5.686;2023-03-04T00:01:15;12.63;;;3.00;;
56511;SDS011;42408;53.238;5.686;2023-03-04T00:03:41;12.47;;;3.63;;
56511;SDS011;42408;53.238;5.686;2023-03-04T00:06:07;8.70;;;3.17;;
56511;SDS011;42408;53.238;5.686;2023-03-04T00:08:33;16.00;;;3.50;;
56511;SDS011;42408;53.238;5.686;2023-03-04T00:10:59;9.55;;;2.70;;
56511;SDS011;42408;53.238;5.686;2023-03-04T00:13:25;13.85;;;3.35;;
56511;SDS011;42408;53.238;5.686;2023-03-04T00:15:50;10.03;;;2.53;;
56511;SDS011;42408;53.238;5.686;2023-03-04T00:18:17;14.80;;;3.03;;
56511;SDS011;42408;53.238;5.686;2023-03-04T00:20:45;10.13;;;3.90;;
56511;SDS011;42408;53.238;5.686;2023-03-04T00:23:11;10.82;;;3.10;;
56511;SDS011;42408;53.238;5.686;2023-03-04T00:25:37;14.80;;;3.30;;
56511;SDS011;42408;53.238;5.686;2023-03-04T00:28:02;9.30;;;2.80;;
56511;SDS011;42408;53.238;5.686;2023-03-04T00:30:28;11.77;;;3.07;;
56511;SDS011;42408;53.238;5.686;2023-03-04T00:32:54;11.37;;;3.13;;
56511;SDS011;42408;53.238;5.686;2023-03-04T00:35:20;12.20;;;2.50;;
56511;SDS011;42408;53.238;5.686;2023-03-04T00:37:45;10.17;;;2.20;;
56511;SDS011;42408;53.238;5.686;2023-03-04T00:40:11;13.93;;;3.17;;
56511;SDS011;42408;53.238;5.686;2023-03-04T00:42:37;8.53;;;2.40;;
56511;SDS011;42408;53.238;5.686;2023-03-04T00:45:03;11.73;;;2.80;;
56511;SDS011;42408;53.238;5.686;2023-03-04T00:47:29;9.77;;;2.60;;
56511;SDS011;42408;53.238;5.686;2023-03-04T00:49:55;7.07;;;2.60;;
56511;SDS011;42408;53.238;5.686;2023-03-04T00:52:20;11.60;;;2.47;;
56511;SDS011;42408;53.238;5.686;2023-03-04T00:54:46;11.03;;;3.60;;
56511;SDS011;42408;53.238;5.686;2023-03-04T00:57:11;15.93;;;2.90;;
56511;SDS011;42408;53.238;5.686;2023-03-04T00:59:37;11.17;;;3.07;;
56511;SDS011;42408;53.238;5.686;2023-03-04T01:02:04;11.02;;;2.60;;
56511;SDS011;42408;53.238;5.686;2023-03-04T01:04:30;9.87;;;2.37;;
56511;SDS011;42408;53.238;5.686;2023-03-04T01:06:56;11.97;;;3.07;;
56511;SDS011;42408;53.238;5.686;2023-03-04T01:09:22;13.83;;;3.03;;
56511;SDS011;42408;53.238;5.686;2023-03-04T01:11:47;14.57;;;3.27;;
56511;SDS011;42408;53.238;5.686;2023-03-04T01:14:13;14.57;;;3.10;;
56511;SDS011;42408;53.238;5.686;2023-03-04T01:16:38;12.53;;;3.30;;
56511;SDS011;42408;53.238;5.686;2023-03-04T01:19:04;10.03;;;3.27;;
56511;SDS011;42408;53.238;5.686;2023-03-04T01:21:30;10.07;;;2.67;;
56511;SDS011;42408;53.238;5.686;2023-03-04T01:23:55;10.43;;;2.93;;
56511;SDS011;42408;53.238;5.686;2023-03-04T01:26:21;11.30;;;3.03;;
56511;SDS011;42408;53.238;5.686;2023-03-04T01:28:47;8.80;;;2.70;;
56511;SDS011;42408;53.238;5.686;2023-03-04T01:31:12;8.93;;;3.10;;
56511;SDS011;42408;53.238;5.686;2023-03-04T01:33:38;10.10;;;2.73;;
56511;SDS011;42408;53.238;5.686;2023-03-04T01:36:04;11.13;;;3.10;;
56511;SDS011;42408;53.238;5.686;2023-03-04T01:38:29;12.83;;;3.80;;
56511;SDS011;42408;53.238;5.686;2023-03-04T01:40:55;10.30;;;2.87;;
56511;SDS011;42408;53.238;5.686;2023-03-04T01:43:22;9.20;;;2.90;;
56511;SDS011;42408;53.238;5.686;2023-03-04T01:45:50;13.68;;;3.45;;
56511;SDS011;42408;53.238;5.686;2023-03-04T01:48:17;14.05;;;3.45;;
56511;SDS011;42408;53.238;5.686;2023-03-04T01:50:48;11.75;;;2.65;;
56511;SDS011;42408;53.238;5.686;2023-03-04T01:53:19;9.07;;;2.90;;
56511;SDS011;42408;53.238;5.686;2023-03-04T01:55:47;15.60;;;3.42;;
56511;SDS011;42408;53.238;5.686;2023-03-04T01:58:13;10.05;;;3.10;;
56511;SDS011;42408;53.238;5.686;2023-03-04T02:00:39;11.13;;;3.27;;
56511;SDS011;42408;53.238;5.686;2023-03-04T02:03:06;13.07;;;2.90;;
56511;SDS011;42408;53.238;5.686;2023-03-04T02:05:36;12.85;;;3.03;;
56511;SDS011;42408;53.238;5.686;2023-03-04T02:08:04;14.07;;;3.50;;
56511;SDS011;42408;53.238;5.686;2023-03-04T02:10:30;8.95;;;2.70;;
56511;SDS011;42408;53.238;5.686;2023-03-04T02:12:57;13.00;;;3.35;;
56511;SDS011;42408;53.238;5.686;2023-03-04T02:17:49;14.25;;;3.10;;
56511;SDS011;42408;53.238;5.686;2023-03-04T02:22:56;11.40;;;2.70;;
56511;SDS011;42408;53.238;5.686;2023-03-04T02:25:28;9.68;;;2.78;;
56511;SDS011;42408;53.238;5.686;2023-03-04T02:27:59;11.38;;;3.10;;
56511;SDS011;42408;53.238;5.686;2023-03-04T02:30:25;8.50;;;2.53;;
56511;SDS011;42408;53.238;5.686;2023-03-04T02:32:51;9.33;;;2.77;;
56511;SDS011;42408;53.238;5.686;2023-03-04T02:35:18;4.97;;;1.92;;
56511;SDS011;42408;53.238;5.686;2023-03-04T02:40:14;8.82;;;2.40;;
56511;SDS011;42408;53.238;5.686;2023-03-04T02:42:48;9.45;;;2.40;;
56511;SDS011;42408;53.238;5.686;2023-03-04T02:48:01;10.48;;;2.58;;
56511;SDS011;42408;53.238;5.686;2023-03-04T02:50:28;8.55;;;2.63;;
56511;SDS011;42408;53.238;5.686;2023-03-04T02:52:58;12.27;;;2.78;;
56511;SDS011;42408;53.238;5.686;2023-03-04T02:55:23;12.57;;;3.47;;
56511;SDS011;42408;53.238;5.686;2023-03-04T02:57:49;7.83;;;2.60;;
56511;SDS011;42408;53.238;5.686;2023-03-04T03:00:15;9.47;;;2.30;;
56511;SDS011;42408;53.238;5.686;2023-03-04T03:02:41;10.80;;;2.75;;
56511;SDS011;42408;53.238;5.686;2023-03-04T03:05:06;13.17;;;2.90;;
56511;SDS011;42408;53.238;5.686;2023-03-04T03:07:32;11.17;;;2.63;;
56511;SDS011;42408;53.238;5.686;2023-03-04T03:09:59;9.20;;;2.55;;
56511;SDS011;42408;53.238;5.686;2023-03-04T03:12:25;6.97;;;2.45;;
56511;SDS011;42408;53.238;5.686;2023-03-04T03:14:51;5.43;;;2.37;;
56511;SDS011;42408;53.238;5.686;2023-03-04T03:17:17;8.97;;;2.17;;
56511;SDS011;42408;53.238;5.686;2023-03-04T03:19:42;14.00;;;2.37;;
56511;SDS011;42408;53.238;5.686;2023-03-04T03:22:08;12.93;;;3.03;;
56511;SDS011;42408;53.238;5.686;2023-03-04T03:24:33;9.57;;;2.03;;
56511;SDS011;42408;53.238;5.686;2023-03-04T03:26:59;10.00;;;2.67;;
56511;SDS011;42408;53.238;5.686;2023-03-04T03:29:25;12.07;;;2.53;;
56511;SDS011;42408;53.238;5.686;2023-03-04T03:31:51;6.53;;;2.20;;
56511;SDS011;42408;53.238;5.686;2023-03-04T03:34:16;11.13;;;2.63;;
56511;SDS011;42408;53.238;5.686;2023-03-04T03:36:42;9.97;;;1.97;;
56511;SDS011;42408;53.238;5.686;2023-03-04T03:39:07;6.90;;;2.70;;
56511;SDS011;42408;53.238;5.686;2023-03-04T03:41:33;7.87;;;1.90;;
56511;SDS011;42408;53.238;5.686;2023-03-04T03:43:59;6.40;;;2.00;;
56511;SDS011;42408;53.238;5.686;2023-03-04T03:46:25;7.15;;;1.88;;
56511;SDS011;42408;53.238;5.686;2023-03-04T03:48:51;8.60;;;2.57;;
56511;SDS011;42408;53.238;5.686;2023-03-04T03:51:17;6.83;;;1.87;;
56511;SDS011;42408;53.238;5.686;2023-03-04T03:53:42;5.73;;;1.87;;
56511;SDS011;42408;53.238;5.686;2023-03-04T03:56:08;7.00;;;2.33;;
56511;SDS011;42408;53.238;5.686;2023-03-04T03:58:34;5.80;;;1.83;;
56511;SDS011;42408;53.238;5.686;2023-03-04T04:00:59;7.10;;;1.70;;
56511;SDS011;42408;53.238;5.686;2023-03-04T04:03:25;6.97;;;2.00;;
56511;SDS011;42408;53.238;5.686;2023-03-04T04:05:51;6.80;;;1.97;;
56511;SDS011;42408;53.238;5.686;2023-03-04T04:08:17;6.43;;;2.10;;
56511;SDS011;42408;53.238;5.686;2023-03-04T04:10:43;8.32;;;1.83;;
56511;SDS011;42408;53.238;5.686;2023-03-04T04:13:09;7.80;;;2.00;;
56511;SDS011;42408;53.238;5.686;2023-03-04T04:15:35;7.63;;;1.88;;
56511;SDS011;42408;53.238;5.686;2023-03-04T04:18:03;5.90;;;1.80;;
56511;SDS011;42408;53.238;5.686;2023-03-04T04:20:29;7.38;;;1.80;;
56511;SDS011;42408;53.238;5.686;2023-03-04T04:22:54;11.00;;;2.63;;
56511;SDS011;42408;53.238;5.686;2023-03-04T04:25:20;9.30;;;2.17;;
56511;SDS011;42408;53.238;5.686;2023-03-04T04:27:46;6.33;;;2.23;;
56511;SDS011;42408;53.238;5.686;2023-03-04T04:30:12;8.40;;;1.80;;
56511;SDS011;42408;53.238;5.686;2023-03-04T04:32:38;8.20;;;2.10;;
56511;SDS011;42408;53.238;5.686;2023-03-04T04:35:03;5.87;;;1.63;;
56511;SDS011;42408;53.238;5.686;2023-03-04T04:37:30;3.50;;;1.55;;
56511;SDS011;42408;53.238;5.686;2023-03-04T04:39:55;6.47;;;2.00;;
56511;SDS011;42408;53.238;5.686;2023-03-04T04:42:21;6.77;;;1.77;;
56511;SDS011;42408;53.238;5.686;2023-03-04T04:44:47;4.70;;;1.38;;
56511;SDS011;42408;53.238;5.686;2023-03-04T04:47:13;7.37;;;1.90;;
56511;SDS011;42408;53.238;5.686;2023-03-04T04:49:39;4.17;;;1.80;;
56511;SDS011;42408;53.238;5.686;2023-03-04T04:52:05;8.97;;;2.10;;
56511;SDS011;42408;53.238;5.686;2023-03-04T04:54:30;7.03;;;2.13;;
56511;SDS011;42408;53.238;5.686;2023-03-04T04:56:56;6.20;;;2.20;;
56511;SDS011;42408;53.238;5.686;2023-03-04T04:59:22;6.87;;;1.57;;
56511;SDS011;42408;53.238;5.686;2023-03-04T05:01:47;7.23;;;2.10;;
56511;SDS011;42408;53.238;5.686;2023-03-04T05:04:13;7.23;;;1.70;;
56511;SDS011;42408;53.238;5.686;2023-03-04T05:06:39;8.60;;;1.90;;
56511;SDS011;42408;53.238;5.686;2023-03-04T05:09:05;6.80;;;1.80;;
56511;SDS011;42408;53.238;5.686;2023-03-04T05:11:31;9.10;;;2.57;;
56511;SDS011;42408;53.238;5.686;2023-03-04T05:13:57;6.07;;;1.83;;
56511;SDS011;42408;53.238;5.686;2023-03-04T05:16:22;6.00;;;2.20;;
56511;SDS011;42408;53.238;5.686;2023-03-04T05:18:48;5.80;;;2.03;;
56511;SDS011;42408;53.238;5.686;2023-03-04T05:21:14;7.07;;;1.80;;
56511;SDS011;42408;53.238;5.686;2023-03-04T05:23:40;8.60;;;1.90;;
56511;SDS011;42408;53.238;5.686;2023-03-04T05:26:07;12.63;;;3.38;;
56511;SDS011;42408;53.238;5.686;2023-03-04T05:28:34;6.15;;;2.10;;
56511;SDS011;42408;53.238;5.686;2023-03-04T05:31:00;8.90;;;2.00;;
56511;SDS011;42408;53.238;5.686;2023-03-04T05:33:27;6.75;;;2.20;;
56511;SDS011;42408;53.238;5.686;2023-03-04T05:35:53;9.33;;;2.53;;
56511;SDS011;42408;53.238;5.686;2023-03-04T05:38:19;10.63;;;2.57;;
56511;SDS011;42408;53.238;5.686;2023-03-04T05:40:45;12.32;;;2.45;;
56511;SDS011;42408;53.238;5.686;2023-03-04T05:43:12;9.13;;;2.00;;
56511;SDS011;42408;53.238;5.686;2023-03-04T05:45:38;7.00;;;2.03;;
56511;SDS011;42408;53.238;5.686;2023-03-04T05:48:04;8.23;;;2.47;;
56511;SDS011;42408;53.238;5.686;2023-03-04T05:50:31;10.13;;;2.00;;
56511;SDS011;42408;53.238;5.686;2023-03-04T05:52:57;12.15;;;2.40;;
56511;SDS011;42408;53.238;5.686;2023-03-04T05:55:23;8.82;;;1.95;;
56511;SDS011;42408;53.238;5.686;2023-03-04T05:57:49;12.23;;;2.77;;
56511;SDS011;42408;53.238;5.686;2023-03-04T06:00:15;9.70;;;2.17;;
56511;SDS011;42408;53.238;5.686;2023-03-04T06:02:41;14.02;;;2.25;;
56511;SDS011;42408;53.238;5.686;2023-03-04T06:05:08;8.05;;;2.22;;
56511;SDS011;42408;53.238;5.686;2023-03-04T06:07:35;10.07;;;2.47;;
56511;SDS011;42408;53.238;5.686;2023-03-04T06:10:01;6.63;;;1.93;;
56511;SDS011;42408;53.238;5.686;2023-03-04T06:12:27;5.68;;;1.60;;
56511;SDS011;42408;53.238;5.686;2023-03-04T06:14:54;9.48;;;2.15;;
56511;SDS011;42408;53.238;5.686;2023-03-04T06:17:19;5.50;;;1.70;;
56511;SDS011;42408;53.238;5.686;2023-03-04T06:19:45;6.33;;;1.80;;
56511;SDS011;42408;53.238;5.686;2023-03-04T06:22:11;5.90;;;1.50;;
56511;SDS011;42408;53.238;5.686;2023-03-04T06:24:37;4.40;;;1.70;;
56511;SDS011;42408;53.238;5.686;2023-03-04T06:27:03;5.95;;;1.70;;
56511;SDS011;42408;53.238;5.686;2023-03-04T06:29:29;9.55;;;2.20;;
56511;SDS011;42408;53.238;5.686;2023-03-04T06:31:55;9.20;;;2.30;;
56511;SDS011;42408;53.238;5.686;2023-03-04T06:34:20;7.90;;;1.93;;
56511;SDS011;42408;53.238;5.686;2023-03-04T06:36:46;8.17;;;2.13;;
56511;SDS011;42408;53.238;5.686;2023-03-04T06:39:12;10.55;;;2.35;;
56511;SDS011;42408;53.238;5.686;2023-03-04T06:41:38;9.23;;;2.67;;
56511;SDS011;42408;53.238;5.686;2023-03-04T06:44:03;10.17;;;2.23;;
56511;SDS011;42408;53.238;5.686;2023-03-04T06:46:29;11.80;;;2.67;;
56511;SDS011;42408;53.238;5.686;2023-03-04T06:48:57;9.05;;;2.83;;
56511;SDS011;42408;53.238;5.686;2023-03-04T06:51:22;10.50;;;2.57;;
56511;SDS011;42408;53.238;5.686;2023-03-04T06:53:48;7.57;;;2.07;;
56511;SDS011;42408;53.238;5.686;2023-03-04T06:56:14;8.70;;;2.83;;
56511;SDS011;42408;53.238;5.686;2023-03-04T06:58:40;10.70;;;2.55;;
56511;SDS011;42408;53.238;5.686;2023-03-04T07:03:43;13.80;;;2.70;;
56511;SDS011;42408;53.238;5.686;2023-03-04T07:06:10;9.70;;;2.30;;
56511;SDS011;42408;53.238;5.686;2023-03-04T07:08:36;6.57;;;1.88;;
56511;SDS011;42408;53.238;5.686;2023-03-04T07:11:02;12.85;;;2.47;;
56511;SDS011;42408;53.238;5.686;2023-03-04T07:13:28;10.97;;;2.07;;
56511;SDS011;42408;53.238;5.686;2023-03-04T07:15:54;10.70;;;2.90;;
56511;SDS011;42408;53.238;5.686;2023-03-04T07:18:20;12.00;;;2.07;;
56511;SDS011;42408;53.238;5.686;2023-03-04T07:20:45;6.57;;;1.70;;
56511;SDS011;42408;53.238;5.686;2023-03-04T07:23:11;10.00;;;2.23;;
56511;SDS011;42408;53.238;5.686;2023-03-04T07:25:37;8.30;;;2.03;;
56511;SDS011;42408;53.238;5.686;2023-03-04T07:28:02;9.90;;;2.87;;
56511;SDS011;42408;53.238;5.686;2023-03-04T07:30:28;9.40;;;2.63;;
56511;SDS011;42408;53.238;5.686;2023-03-04T07:32:55;13.30;;;2.80;;
56511;SDS011;42408;53.238;5.686;2023-03-04T07:35:21;9.18;;;2.88;;
56511;SDS011;42408;53.238;5.686;2023-03-04T07:37:47;6.67;;;1.90;;
56511;SDS011;42408;53.238;5.686;2023-03-04T07:40:13;9.30;;;2.40;;
56511;SDS011;42408;53.238;5.686;2023-03-04T07:42:38;10.33;;;2.37;;
56511;SDS011;42408;53.238;5.686;2023-03-04T07:45:04;14.97;;;3.03;;
56511;SDS011;42408;53.238;5.686;2023-03-04T07:47:31;14.73;;;2.80;;
56511;SDS011;42408;53.238;5.686;2023-03-04T07:49:57;13.70;;;3.27;;
56511;SDS011;42408;53.238;5.686;2023-03-04T07:52:23;12.57;;;3.23;;
56511;SDS011;42408;53.238;5.686;2023-03-04T07:54:49;11.33;;;3.27;;
56511;SDS011;42408;53.238;5.686;2023-03-04T07:57:14;11.47;;;3.10;;
56511;SDS011;42408;53.238;5.686;2023-03-04T07:59:40;11.07;;;3.10;;
56511;SDS011;42408;53.238;5.686;2023-03-04T08:02:06;18.07;;;3.57;;
56511;SDS011;42408;53.238;5.686;2023-03-04T08:04:31;9.90;;;3.20;;
56511;SDS011;42408;53.238;5.686;2023-03-04T08:06:57;11.17;;;3.40;;
56511;SDS011;42408;53.238;5.686;2023-03-04T08:09:23;13.67;;;3.00;;
56511;SDS011;42408;53.238;5.686;2023-03-04T08:11:48;14.13;;;2.73;;
56511;SDS011;42408;53.238;5.686;2023-03-04T08:14:14;9.17;;;2.30;;
56511;SDS011;42408;53.238;5.686;2023-03-04T08:16:40;10.40;;;2.37;;
56511;SDS011;42408;53.238;5.686;2023-03-04T08:19:06;9.83;;;2.20;;
56511;SDS011;42408;53.238;5.686;2023-03-04T08:21:32;6.38;;;1.80;;
56511;SDS011;42408;53.238;5.686;2023-03-04T08:23:59;7.72;;;1.80;;
56511;SDS011;42408;53.238;5.686;2023-03-04T08:26:32;5.82;;;1.83;;
56511;SDS011;42408;53.238;5.686;2023-03-04T08:29:03;9.27;;;2.50;;
56511;SDS011;42408;53.238;5.686;2023-03-04T08:31:30;6.90;;;2.15;;
56511;SDS011;42408;53.238;5.686;2023-03-04T08:33:56;10.20;;;2.17;;
56511;SDS011;42408;53.238;5.686;2023-03-04T08:36:22;11.47;;;2.53;;
56511;SDS011;42408;53.238;5.686;2023-03-04T08:38:47;10.30;;;2.43;;
56511;SDS011;42408;53.238;5.686;2023-03-04T08:41:13;9.27;;;2.57;;
56511;SDS011;42408;53.238;5.686;2023-03-04T08:43:39;9.10;;;2.50;;
56511;SDS011;42408;53.238;5.686;2023-03-04T08:46:05;14.13;;;3.77;;
56511;SDS011;42408;53.238;5.686;2023-03-04T08:48:31;12.57;;;2.93;;
56511;SDS011;42408;53.238;5.686;2023-03-04T08:50:57;12.73;;;4.13;;
56511;SDS011;42408;53.238;5.686;2023-03-04T08:53:23;16.70;;;3.27;;
56511;SDS011;42408;53.238;5.686;2023-03-04T08:55:49;12.57;;;3.03;;
56511;SDS011;42408;53.238;5.686;2023-03-04T08:58:16;11.20;;;2.85;;
56511;SDS011;42408;53.238;5.686;2023-03-04T09:00:43;17.60;;;3.47;;
56511;SDS011;42408;53.238;5.686;2023-03-04T09:03:12;16.90;;;3.60;;
56511;SDS011;42408;53.238;5.686;2023-03-04T09:05:38;12.40;;;3.27;;
56511;SDS011;42408;53.238;5.686;2023-03-04T09:08:04;19.50;;;3.72;;
56511;SDS011;42408;53.238;5.686;2023-03-04T09:10:30;21.70;;;4.40;;
56511;SDS011;42408;53.238;5.686;2023-03-04T09:12:56;12.47;;;3.93;;
56511;SDS011;42408;53.238;5.686;2023-03-04T09:15:22;15.90;;;3.80;;
56511;SDS011;42408;53.238;5.686;2023-03-04T09:17:48;17.43;;;4.63;;
56511;SDS011;42408;53.238;5.686;2023-03-04T09:20:14;17.07;;;3.47;;
56511;SDS011;42408;53.238;5.686;2023-03-04T09:22:40;19.00;;;3.80;;
56511;SDS011;42408;53.238;5.686;2023-03-04T09:25:06;15.80;;;4.10;;
56511;SDS011;42408;53.238;5.686;2023-03-04T09:27:32;12.30;;;3.38;;
56511;SDS011;42408;53.238;5.686;2023-03-04T09:29:58;11.10;;;4.07;;
56511;SDS011;42408;53.238;5.686;2023-03-04T09:32:24;18.47;;;3.83;;
56511;SDS011;42408;53.238;5.686;2023-03-04T09:34:49;11.50;;;3.20;;
56511;SDS011;42408;53.238;5.686;2023-03-04T09:37:15;19.17;;;3.83;;
56511;SDS011;42408;53.238;5.686;2023-03-04T09:39:41;13.23;;;3.07;;
56511;SDS011;42408;53.238;5.686;2023-03-04T09:42:07;12.73;;;3.10;;
56511;SDS011;42408;53.238;5.686;2023-03-04T09:47:11;10.98;;;2.75;;
56511;SDS011;42408;53.238;5.686;2023-03-04T09:49:44;17.05;;;3.13;;
56511;SDS011;42408;53.238;5.686;2023-03-04T09:55:39;12.35;;;2.53;;
56511;SDS011;42408;53.238;5.686;2023-03-04T10:03:44;14.75;;;2.88;;
56511;SDS011;42408;53.238;5.686;2023-03-04T10:06:18;9.35;;;2.45;;
56511;SDS011;42408;53.238;5.686;2023-03-04T10:08:59;9.00;;;2.63;;
56511;SDS011;42408;53.238;5.686;2023-03-04T10:11:34;12.27;;;2.58;;
56511;SDS011;42408;53.238;5.686;2023-03-04T10:16:51;7.72;;;2.15;;
56511;SDS011;42408;53.238;5.686;2023-03-04T10:19:29;7.07;;;2.20;;
56511;SDS011;42408;53.238;5.686;2023-03-04T10:22:13;8.70;;;2.63;;
56511;SDS011;42408;53.238;5.686;2023-03-04T10:24:50;8.75;;;2.33;;
56511;SDS011;42408;53.238;5.686;2023-03-04T10:27:19;11.05;;;2.85;;
56511;SDS011;42408;53.238;5.686;2023-03-04T10:29:47;13.60;;;3.03;;
56511;SDS011;42408;53.238;5.686;2023-03-04T10:32:14;8.87;;;2.07;;
56511;SDS011;42408;53.238;5.686;2023-03-04T10:34:42;10.93;;;2.83;;
56511;SDS011;42408;53.238;5.686;2023-03-04T10:37:08;7.95;;;2.00;;
56511;SDS011;42408;53.238;5.686;2023-03-04T10:39:42;10.30;;;2.25;;
56511;SDS011;42408;53.238;5.686;2023-03-04T10:44:40;11.65;;;2.35;;
56511;SDS011;42408;53.238;5.686;2023-03-04T10:47:15;6.63;;;1.85;;
56511;SDS011;42408;53.238;5.686;2023-03-04T10:49:51;8.50;;;1.53;;
56511;SDS011;42408;53.238;5.686;2023-03-04T10:52:28;10.15;;;2.38;;
56511;SDS011;42408;53.238;5.686;2023-03-04T10:55:03;9.70;;;1.92;;
56511;SDS011;42408;53.238;5.686;2023-03-04T10:57:37;13.68;;;2.45;;
56511;SDS011;42408;53.238;5.686;2023-03-04T11:02:44;10.27;;;2.10;;
56511;SDS011;42408;53.238;5.686;2023-03-04T11:05:21;10.63;;;2.28;;
56511;SDS011;42408;53.238;5.686;2023-03-04T11:10:31;7.20;;;2.40;;
56511;SDS011;42408;53.238;5.686;2023-03-04T11:19:04;12.23;;;2.90;;
56511;SDS011;42408;53.238;5.686;2023-03-04T11:21:18;14.18;;;3.45;;
56511;SDS011;42408;53.238;5.686;2023-03-04T11:26:22;16.75;;;3.80;;
56511;SDS011;42408;53.238;5.686;2023-03-04T11:29:14;9.45;;;2.88;;
56511;SDS011;42408;53.238;5.686;2023-03-04T11:34:32;13.38;;;3.45;;
56511;SDS011;42408;53.238;5.686;2023-03-04T11:37:24;16.50;;;3.83;;
56511;SDS011;42408;53.238;5.686;2023-03-04T11:40:11;14.80;;;3.50;;
56511;SDS011;42408;53.238;5.686;2023-03-04T11:42:41;11.23;;;2.92;;
56511;SDS011;42408;53.238;5.686;2023-03-04T11:45:13;12.15;;;3.55;;
56511;SDS011;42408;53.238;5.686;2023-03-04T11:47:43;12.43;;;3.50;;
56511;SDS011;42408;53.238;5.686;2023-03-04T11:50:24;9.93;;;2.97;;
56511;SDS011;42408;53.238;5.686;2023-03-04T11:55:45;9.23;;;2.78;;
56511;SDS011;42408;53.238;5.686;2023-03-04T12:06:45;12.55;;;3.17;;
56511;SDS011;42408;53.238;5.686;2023-03-04T12:23:28;14.35;;;3.35;;
56511;SDS011;42408;53.238;5.686;2023-03-04T12:26:20;14.38;;;3.67;;
56511;SDS011;42408;53.238;5.686;2023-03-04T12:29:11;12.50;;;3.47;;
56511;SDS011;42408;53.238;5.686;2023-03-04T12:31:56;16.27;;;3.33;;
56511;SDS011;42408;53.238;5.686;2023-03-04T12:40:45;13.20;;;2.65;;
56511;SDS011;42408;53.238;5.686;2023-03-04T12:51:17;13.05;;;3.53;;
56511;SDS011;42408;53.238;5.686;2023-03-04T12:54:15;20.17;;;3.65;;
56511;SDS011;42408;53.238;5.686;2023-03-04T12:59:35;16.08;;;3.88;;
56511;SDS011;42408;53.238;5.686;2023-03-04T13:02:20;16.30;;;3.60;;
56511;SDS011;42408;53.238;5.686;2023-03-04T13:05:16;15.02;;;4.00;;
56511;SDS011;42408;53.238;5.686;2023-03-04T13:25:32;12.30;;;3.53;;
56511;SDS011;42408;53.238;5.686;2023-03-04T13:38:22;12.90;;;3.10;;
56511;SDS011;42408;53.238;5.686;2023-03-04T13:43:41;12.52;;;3.40;;
56511;SDS011;42408;53.238;5.686;2023-03-04T13:49:02;9.57;;;3.05;;
56511;SDS011;42408;53.238;5.686;2023-03-04T13:51:32;11.95;;;2.55;;
56511;SDS011;42408;53.238;5.686;2023-03-04T13:54:20;10.80;;;2.43;;
56511;SDS011;42408;53.238;5.686;2023-03-04T14:02:01;13.15;;;3.10;;
56511;SDS011;42408;53.238;5.686;2023-03-04T14:04:32;11.05;;;3.33;;
56511;SDS011;42408;53.238;5.686;2023-03-04T14:07:03;9.32;;;3.08;;
56511;SDS011;42408;53.238;5.686;2023-03-04T14:10:02;8.20;;;3.13;;
56511;SDS011;42408;53.238;5.686;2023-03-04T14:12:36;13.60;;;3.35;;
56511;SDS011;42408;53.238;5.686;2023-03-04T14:17:37;11.88;;;3.00;;
56511;SDS011;42408;53.238;5.686;2023-03-04T14:20:06;9.60;;;2.78;;
56511;SDS011;42408;53.238;5.686;2023-03-04T14:25:50;8.77;;;2.40;;
56511;SDS011;42408;53.238;5.686;2023-03-04T14:28:17;7.70;;;2.37;;
56511;SDS011;42408;53.238;5.686;2023-03-04T14:30:51;11.80;;;2.50;;
56511;SDS011;42408;53.238;5.686;2023-03-04T14:33:20;10.63;;;2.47;;
56511;SDS011;42408;53.238;5.686;2023-03-04T14:35:48;12.30;;;2.60;;
56511;SDS011;42408;53.238;5.686;2023-03-04T14:38:22;10.38;;;2.45;;
56511;SDS011;42408;53.238;5.686;2023-03-04T14:40:52;10.18;;;3.13;;
56511;SDS011;42408;53.238;5.686;2023-03-04T14:43:48;10.73;;;2.88;;
56511;SDS011;42408;53.238;5.686;2023-03-04T14:46:18;13.10;;;3.60;;
56511;SDS011;42408;53.238;5.686;2023-03-04T14:48:49;13.15;;;2.97;;
56511;SDS011;42408;53.238;5.686;2023-03-04T14:51:30;13.77;;;3.65;;
56511;SDS011;42408;53.238;5.686;2023-03-04T14:54:30;9.90;;;3.40;;
56511;SDS011;42408;53.238;5.686;2023-03-04T14:56:58;14.65;;;3.55;;
56511;SDS011;42408;53.238;5.686;2023-03-04T14:59:30;14.90;;;3.70;;
56511;SDS011;42408;53.238;5.686;2023-03-04T15:04:55;11.98;;;2.88;;
56511;SDS011;42408;53.238;5.686;2023-03-04T15:07:32;9.95;;;2.75;;
56511;SDS011;42408;53.238;5.686;2023-03-04T15:10:00;13.77;;;3.20;;
56511;SDS011;42408;53.238;5.686;2023-03-04T15:12:30;18.33;;;3.65;;
56511;SDS011;42408;53.238;5.686;2023-03-04T15:15:33;12.50;;;3.30;;
56511;SDS011;42408;53.238;5.686;2023-03-04T15:17:59;11.57;;;3.40;;
56511;SDS011;42408;53.238;5.686;2023-03-04T15:20:29;13.05;;;3.60;;
56511;SDS011;42408;53.238;5.686;2023-03-04T15:23:00;15.48;;;3.55;;
56511;SDS011;42408;53.238;5.686;2023-03-04T15:25:28;10.10;;;3.75;;
56511;SDS011;42408;53.238;5.686;2023-03-04T15:27:55;17.17;;;3.67;;
56511;SDS011;42408;53.238;5.686;2023-03-04T15:30:29;16.33;;;4.22;;
56511;SDS011;42408;53.238;5.686;2023-03-04T15:32:57;15.02;;;3.55;;
56511;SDS011;42408;53.238;5.686;2023-03-04T15:35:24;9.45;;;3.00;;
56511;SDS011;42408;53.238;5.686;2023-03-04T15:37:53;14.20;;;3.80;;
56511;SDS011;42408;53.238;5.686;2023-03-04T15:42:52;12.45;;;3.97;;
56511;SDS011;42408;53.238;5.686;2023-03-04T15:45:20;10.50;;;3.13;;
56511;SDS011;42408;53.238;5.686;2023-03-04T15:47:49;10.07;;;2.80;;
56511;SDS011;42408;53.238;5.686;2023-03-04T15:50:15;12.07;;;3.00;;
56511;SDS011;42408;53.238;5.686;2023-03-04T15:52:41;13.55;;;3.72;;
56511;SDS011;42408;53.238;5.686;2023-03-04T15:55:17;14.77;;;3.30;;
56511;SDS011;42408;53.238;5.686;2023-03-04T15:57:45;12.23;;;2.95;;
56511;SDS011;42408;53.238;5.686;2023-03-04T16:00:14;10.30;;;2.78;;
56511;SDS011;42408;53.238;5.686;2023-03-04T16:02:40;12.02;;;3.17;;
56511;SDS011;42408;53.238;5.686;2023-03-04T16:05:06;15.70;;;3.53;;
56511;SDS011;42408;53.238;5.686;2023-03-04T16:07:32;13.65;;;3.60;;
56511;SDS011;42408;53.238;5.686;2023-03-04T16:10:00;12.60;;;3.38;;
56511;SDS011;42408;53.238;5.686;2023-03-04T16:12:29;11.85;;;2.90;;
56511;SDS011;42408;53.238;5.686;2023-03-04T16:14:57;7.30;;;2.15;;
56511;SDS011;42408;53.238;5.686;2023-03-04T16:17:22;13.90;;;2.47;;
56511;SDS011;42408;53.238;5.686;2023-03-04T16:19:48;14.97;;;2.87;;
56511;SDS011;42408;53.238;5.686;2023-03-04T16:22:18;13.63;;;3.87;;
56511;SDS011;42408;53.238;5.686;2023-03-04T16:24:49;15.80;;;2.90;;
56511;SDS011;42408;53.238;5.686;2023-03-04T16:27:16;8.88;;;2.65;;
56511;SDS011;42408;53.238;5.686;2023-03-04T16:32:09;10.80;;;2.92;;
56511;SDS011;42408;53.238;5.686;2023-03-04T16:34:35;12.10;;;2.90;;
56511;SDS011;42408;53.238;5.686;2023-03-04T16:37:02;13.00;;;3.27;;
56511;SDS011;42408;53.238;5.686;2023-03-04T16:39:35;11.95;;;3.10;;
56511;SDS011;42408;53.238;5.686;2023-03-04T16:42:01;13.07;;;2.93;;
56511;SDS011;42408;53.238;5.686;2023-03-04T16:44:27;9.53;;;2.53;;
56511;SDS011;42408;53.238;5.686;2023-03-04T16:46:52;13.17;;;3.10;;
56511;SDS011;42408;53.238;5.686;2023-03-04T16:49:18;9.73;;;2.40;;
56511;SDS011;42408;53.238;5.686;2023-03-04T16:51:44;12.70;;;2.60;;
56511;SDS011;42408;53.238;5.686;2023-03-04T16:54:13;12.02;;;3.10;;
56511;SDS011;42408;53.238;5.686;2023-03-04T16:56:42;10.85;;;3.45;;
56511;SDS011;42408;53.238;5.686;2023-03-04T16:59:10;10.90;;;3.27;;
56511;SDS011;42408;53.238;5.686;2023-03-04T17:01:40;13.90;;;3.28;;
56511;SDS011;42408;53.238;5.686;2023-03-04T17:04:06;9.93;;;3.10;;
56511;SDS011;42408;53.238;5.686;2023-03-04T17:06:31;11.43;;;2.67;;
56511;SDS011;42408;53.238;5.686;2023-03-04T17:09:00;14.18;;;4.38;;